Time;durP1;ratioP1;P1;durP2;ratioP2;P2;SDS_P1;SDS_P2;PMS_P1;PMS_P2;Temp;Humidity;BMP_temperature;BMP_pressure;BME280_temperature;BME280_humidity;BME280_pressure;Samples;Min_cycle;Max_cycle;Signal;HPM_P1;HPM_P2
2021/10/27 00:01:26;;;;;;;3.67;3.30;;;7.00;99.90;;;;;;5075437;28;20207;-64
2021/10/27 00:03:52;;;;;;;2.97;2.77;;;6.90;99.90;;;;;;5075180;28;20256;-63
2021/10/27 00:06:18;;;;;;;4.20;3.90;;;6.90;99.90;;;;;;5074940;28;20176;-65
2021/10/27 00:08:43;;;;;;;3.93;2.77;;;6.90;99.90;;;;;;5075064;28;20192;-65
2021/10/27 00:11:09;;;;;;;2.77;2.53;;;6.80;99.90;;;;;;5073756;28;20670;-64
2021/10/27 00:13:35;;;;;;;3.00;2.80;;;6.90;99.90;;;;;;5075102;28;20644;-64
2021/10/27 00:16:02;;;;;;;4.10;3.70;;;6.80;99.90;;;;;;5074798;28;20251;-65
2021/10/27 00:18:29;;;;;;;2.30;2.20;;;6.80;99.90;;;;;;5074506;28;20194;-65
2021/10/27 00:20:54;;;;;;;3.42;3.22;;;6.80;99.90;;;;;;5074859;28;20178;-64
2021/10/27 00:23:20;;;;;;;4.03;2.93;;;6.70;99.90;;;;;;5072395;28;20181;-64
2021/10/27 00:25:46;;;;;;;2.70;2.50;;;6.80;99.90;;;;;;5074881;28;20492;-64
2021/10/27 00:28:11;;;;;;;3.30;3.00;;;6.70;99.90;;;;;;5072990;28;20201;-64
2021/10/27 00:30:37;;;;;;;4.07;3.77;;;6.70;99.90;;;;;;5074488;28;20678;-65
2021/10/27 00:33:03;;;;;;;4.37;3.07;;;6.70;99.90;;;;;;5074624;28;20698;-66
2021/10/27 00:35:28;;;;;;;3.20;3.00;;;6.60;99.90;;;;;;5074647;28;20276;-65
2021/10/27 00:37:54;;;;;;;14.83;3.40;;;6.60;99.90;;;;;;5074292;28;20260;-64
2021/10/27 00:40:20;;;;;;;3.50;3.20;;;6.50;99.90;;;;;;5074332;28;20206;-63
2021/10/27 00:42:45;;;;;;;7.70;3.23;;;6.60;99.90;;;;;;5074730;28;20199;-65
2021/10/27 00:45:11;;;;;;;4.93;3.67;;;6.50;99.90;;;;;;5074418;28;20171;-65
2021/10/27 00:47:37;;;;;;;3.40;3.20;;;6.50;99.90;;;;;;5073939;28;20236;-65
2021/10/27 00:50:03;;;;;;;3.50;3.28;;;6.50;99.90;;;;;;5074169;28;20199;-64
2021/10/27 00:52:29;;;;;;;2.85;2.65;;;6.50;99.90;;;;;;5074448;28;20311;-64
2021/10/27 00:54:55;;;;;;;3.47;3.17;;;6.50;99.90;;;;;;5074444;28;20184;-65
2021/10/27 00:57:22;;;;;;;4.17;3.40;;;6.50;99.90;;;;;;5073643;28;20182;-64
2021/10/27 00:59:48;;;;;;;6.53;3.15;;;6.50;99.90;;;;;;5074291;28;20645;-65
2021/10/27 01:02:17;;;;;;;3.53;3.30;;;6.40;99.90;;;;;;5074224;28;20403;-65
2021/10/27 01:04:44;;;;;;;6.13;3.05;;;6.40;99.90;;;;;;5074091;28;20402;-65
2021/10/27 01:07:10;;;;;;;2.88;2.65;;;6.40;99.90;;;;;;5073592;28;20255;-65
2021/10/27 01:09:37;;;;;;;3.30;3.00;;;6.40;99.90;;;;;;5073987;28;20201;-64
2021/10/27 01:12:04;;;;;;;3.25;2.95;;;6.40;99.90;;;;;;5073676;28;20215;-64
2021/10/27 01:14:38;;;;;;;3.13;2.50;;;6.40;99.90;;;;;;5074007;28;20556;-65
2021/10/27 01:17:05;;;;;;;2.90;2.70;;;6.50;99.90;;;;;;5073297;28;20172;-65
2021/10/27 01:19:59;;;;;;;3.05;2.58;;;6.40;99.90;;;;;;5073808;28;20179;-65
2021/10/27 01:22:28;;;;;;;4.43;3.95;;;6.40;99.90;;;;;;5073357;28;20190;-65
2021/10/27 01:24:55;;;;;;;2.55;2.45;;;6.40;99.90;;;;;;5073630;28;20184;-65
2021/10/27 01:27:22;;;;;;;3.75;2.70;;;6.50;99.90;;;;;;5071913;28;20287;-64
2021/10/27 01:29:48;;;;;;;3.10;2.60;;;6.50;99.90;;;;;;5072475;28;20263;-65
2021/10/27 01:32:30;;;;;;;3.60;3.30;;;6.50;99.90;;;;;;5073534;28;20612;-64
2021/10/27 01:34:57;;;;;;;2.67;2.47;;;6.40;99.90;;;;;;5073393;28;20441;-64
2021/10/27 01:37:24;;;;;;;2.67;2.47;;;6.40;99.90;;;;;;5073041;28;20204;-65
2021/10/27 01:39:51;;;;;;;2.20;2.10;;;6.40;99.90;;;;;;5073513;28;20529;-66
2021/10/27 01:42:18;;;;;;;3.17;2.97;;;6.40;99.90;;;;;;5072355;28;20645;-66
2021/10/27 01:44:44;;;;;;;3.35;2.97;;;6.40;99.90;;;;;;5073284;28;20223;-65
2021/10/27 01:47:10;;;;;;;3.17;2.55;;;6.30;99.90;;;;;;5071491;28;20176;-65
2021/10/27 01:49:36;;;;;;;3.43;3.13;;;6.30;99.90;;;;;;5073204;28;20204;-65
2021/10/27 01:52:02;;;;;;;3.00;2.80;;;6.30;99.90;;;;;;5073400;28;20414;-65
2021/10/27 01:54:28;;;;;;;3.42;3.22;;;6.30;99.90;;;;;;5073306;28;20402;-65
2021/10/27 01:56:54;;;;;;;3.90;3.60;;;6.20;99.90;;;;;;5071623;28;20179;-65
2021/10/27 01:59:21;;;;;;;2.03;1.92;;;6.30;99.90;;;;;;5073356;28;20192;-64
2021/10/27 02:01:47;;;;;;;3.60;2.95;;;6.20;99.90;;;;;;5072203;28;20527;-64
2021/10/27 02:04:14;;;;;;;3.03;2.83;;;6.20;99.90;;;;;;5073032;28;20169;-65
2021/10/27 02:06:40;;;;;;;3.55;2.95;;;6.20;99.90;;;;;;5072756;28;20169;-64
2021/10/27 02:09:06;;;;;;;3.03;2.83;;;6.20;99.90;;;;;;5071581;28;20276;-64
2021/10/27 02:11:33;;;;;;;2.92;2.70;;;6.20;99.90;;;;;;5073165;28;20637;-64
2021/10/27 02:13:59;;;;;;;3.22;2.92;;;6.20;99.90;;;;;;5072989;28;20168;-66
2021/10/27 02:16:25;;;;;;;4.00;3.05;;;6.10;99.90;;;;;;5072605;28;20168;-64
2021/10/27 02:18:51;;;;;;;2.80;2.60;;;6.10;99.90;;;;;;5072823;28;20218;-65
2021/10/27 02:21:17;;;;;;;3.22;2.60;;;6.10;99.90;;;;;;5072365;28;20187;-66
2021/10/27 02:23:43;;;;;;;2.65;2.45;;;6.10;99.90;;;;;;5073019;28;20181;-65
2021/10/27 02:26:09;;;;;;;2.30;2.20;;;6.10;99.90;;;;;;5072956;28;20181;-63
2021/10/27 02:28:35;;;;;;;2.97;2.80;;;6.10;99.90;;;;;;5071449;28;20441;-64
2021/10/27 02:31:02;;;;;;;3.13;2.83;;;6.10;99.90;;;;;;5072843;28;20508;-64
2021/10/27 02:33:28;;;;;;;3.20;2.90;;;6.10;99.90;;;;;;5071516;28;20173;-64
2021/10/27 02:35:54;;;;;;;4.50;2.57;;;6.10;99.90;;;;;;5071478;28;20552;-65
2021/10/27 02:38:19;;;;;;;2.13;1.90;;;6.10;99.90;;;;;;5072452;28;20432;-64
2021/10/27 02:40:46;;;;;;;3.23;2.90;;;6.10;99.90;;;;;;5072919;28;20626;-64
2021/10/27 02:43:12;;;;;;;3.85;3.55;;;6.10;99.90;;;;;;5072803;28;20571;-65
2021/10/27 02:45:38;;;;;;;3.33;3.13;;;6.00;99.90;;;;;;5073177;28;20168;-64
2021/10/27 02:48:04;;;;;;;2.87;2.57;;;6.10;99.90;;;;;;5076330;28;20265;-64
2021/10/27 02:50:30;;;;;;;2.55;2.35;;;6.10;99.90;;;;;;5076735;28;20288;-64
2021/10/27 02:52:55;;;;;;;2.70;2.57;;;6.00;99.90;;;;;;5076785;28;20248;-64
2021/10/27 02:55:21;;;;;;;3.20;2.97;;;6.00;99.90;;;;;;5076755;28;20169;-65
2021/10/27 02:57:47;;;;;;;3.03;2.83;;;5.90;99.90;;;;;;5075212;28;20268;-65
2021/10/27 03:00:13;;;;;;;3.50;3.17;;;5.90;99.90;;;;;;5076912;28;20437;-65
2021/10/27 03:02:39;;;;;;;2.80;2.60;;;5.80;99.90;;;;;;5076452;28;20248;-65
2021/10/27 03:05:06;;;;;;;2.90;2.70;;;5.80;99.90;;;;;;5075370;28;20597;-66
2021/10/27 03:07:32;;;;;;;3.47;3.17;;;5.90;99.90;;;;;;5075917;28;20462;-65
2021/10/27 03:09:57;;;;;;;3.13;2.40;;;5.90;99.90;;;;;;5076425;28;20216;-64
2021/10/27 03:12:23;;;;;;;3.20;2.90;;;5.90;99.90;;;;;;5076371;28;20252;-65
2021/10/27 03:14:49;;;;;;;4.60;3.13;;;5.90;99.90;;;;;;5075096;28;20196;-65
2021/10/27 03:17:19;;;;;;;2.90;2.70;;;6.00;99.90;;;;;;5076085;28;20181;-64
2021/10/27 03:19:45;;;;;;;3.78;3.47;;;6.00;99.90;;;;;;5076289;28;20169;-64
2021/10/27 03:22:11;;;;;;;3.03;2.70;;;6.00;99.90;;;;;;5076126;28;20228;-64
2021/10/27 03:24:37;;;;;;;3.65;3.33;;;6.10;99.90;;;;;;5076447;28;20532;-64
2021/10/27 03:27:03;;;;;;;9.17;4.10;;;6.20;99.90;;;;;;5075723;28;20169;-64
2021/10/27 03:29:29;;;;;;;4.32;3.92;;;6.10;99.90;;;;;;5075879;28;20211;-65
2021/10/27 03:31:54;;;;;;;3.53;3.20;;;6.20;99.90;;;;;;5076509;28;20175;-65
2021/10/27 03:34:20;;;;;;;3.00;2.80;;;6.10;99.90;;;;;;5078290;28;20166;-65
2021/10/27 03:36:46;;;;;;;2.97;2.53;;;6.20;99.90;;;;;;5078875;28;20180;-64
2021/10/27 03:39:12;;;;;;;2.60;2.40;;;6.10;99.90;;;;;;5079109;28;20192;-65
2021/10/27 03:41:38;;;;;;;3.10;2.80;;;6.10;99.90;;;;;;5079608;28;20175;-64
2021/10/27 03:44:05;;;;;;;4.05;3.10;;;6.00;99.90;;;;;;5080177;28;20180;-64
2021/10/27 03:46:31;;;;;;;3.78;3.00;;;6.00;99.90;;;;;;5079672;28;20177;-64
2021/10/27 03:48:57;;;;;;;3.30;2.63;;;5.90;99.90;;;;;;5082955;28;20187;-64
2021/10/27 03:51:23;;;;;;;5.10;3.57;;;5.90;99.90;;;;;;5081960;28;20204;-66
2021/10/27 03:53:48;;;;;;;2.83;2.40;;;5.90;99.90;;;;;;5079277;28;20161;-65
2021/10/27 03:56:14;;;;;;;2.50;2.40;;;5.90;99.90;;;;;;5077515;28;20657;-65
2021/10/27 03:58:40;;;;;;;3.73;3.43;;;5.90;99.90;;;;;;5075546;28;20661;-65
2021/10/27 04:01:06;;;;;;;3.22;3.03;;;5.90;99.90;;;;;;5075589;28;20276;-65
2021/10/27 04:03:31;;;;;;;3.60;3.30;;;5.90;99.90;;;;;;5075299;28;20252;-65
2021/10/27 04:05:57;;;;;;;6.03;4.60;;;5.90;99.90;;;;;;5074409;28;20184;-65
2021/10/27 04:08:23;;;;;;;6.90;4.00;;;5.90;99.90;;;;;;5074640;28;20193;-65
2021/10/27 04:10:48;;;;;;;6.40;3.53;;;5.90;99.90;;;;;;5081649;28;20200;-65
2021/10/27 04:13:16;;;;;;;3.37;3.07;;;5.90;99.90;;;;;;5074052;28;20656;-65
2021/10/27 04:15:42;;;;;;;3.17;2.28;;;5.90;99.90;;;;;;5075133;28;20175;-65
2021/10/27 04:18:07;;;;;;;3.20;3.00;;;5.90;99.90;;;;;;5074818;28;20645;-64
2021/10/27 04:20:33;;;;;;;3.63;3.03;;;5.80;99.90;;;;;;5075163;28;20173;-65
2021/10/27 04:22:59;;;;;;;4.33;3.97;;;5.90;99.90;;;;;;5074851;28;20423;-65
2021/10/27 04:25:25;;;;;;;2.93;2.73;;;5.80;99.90;;;;;;5075043;28;20224;-65
2021/10/27 04:27:51;;;;;;;4.25;3.58;;;5.90;99.90;;;;;;5074301;28;20220;-65
2021/10/27 04:30:17;;;;;;;2.77;2.53;;;5.90;99.90;;;;;;5074673;28;20700;-64
2021/10/27 04:32:43;;;;;;;6.90;3.55;;;5.90;99.90;;;;;;5073543;28;20172;-64
2021/10/27 04:35:09;;;;;;;3.40;3.20;;;5.80;99.90;;;;;;5074621;28;20238;-65
2021/10/27 04:37:39;;;;;;;2.38;2.17;;;5.80;99.90;;;;;;5073841;28;20276;-64
2021/10/27 04:40:14;;;;;;;17.20;5.03;;;5.80;99.90;;;;;;5073326;28;20230;-64
2021/10/27 04:42:40;;;;;;;4.97;3.67;;;5.80;99.90;;;;;;5074531;28;20540;-65
2021/10/27 04:45:07;;;;;;;3.30;3.00;;;5.80;99.90;;;;;;5074584;28;20227;-65
2021/10/27 04:47:33;;;;;;;2.95;2.75;;;5.80;99.90;;;;;;5072405;28;20506;-65
2021/10/27 04:49:59;;;;;;;6.38;4.38;;;5.80;99.90;;;;;;5072174;28;20599;-65
2021/10/27 04:52:26;;;;;;;3.93;3.40;;;5.80;99.90;;;;;;5072180;28;20170;-64
2021/10/27 04:54:52;;;;;;;4.40;4.00;;;5.80;99.90;;;;;;5072263;28;20676;-66
2021/10/27 04:57:19;;;;;;;4.70;4.30;;;5.90;99.90;;;;;;5072020;28;20197;-66
2021/10/27 04:59:44;;;;;;;3.55;3.25;;;5.90;99.90;;;;;;5072428;28;20510;-66
2021/10/27 05:02:13;;;;;;;2.87;2.67;;;5.90;99.90;;;;;;5072954;28;20176;-66
2021/10/27 05:04:39;;;;;;;4.07;3.60;;;5.80;99.90;;;;;;5074217;28;20403;-64
2021/10/27 05:07:05;;;;;;;3.38;3.08;;;5.80;99.90;;;;;;5073630;28;20207;-65
2021/10/27 05:09:31;;;;;;;5.70;3.30;;;5.80;99.90;;;;;;5073427;28;20272;-65
2021/10/27 05:11:57;;;;;;;3.50;3.20;;;5.80;99.90;;;;;;5073874;28;20570;-65
2021/10/27 05:14:23;;;;;;;5.40;4.15;;;5.80;99.90;;;;;;5074168;28;20164;-65
2021/10/27 05:16:49;;;;;;;4.70;3.90;;;5.80;99.90;;;;;;5073452;28;20176;-65
2021/10/27 05:19:15;;;;;;;6.90;3.80;;;5.80;99.90;;;;;;5073516;28;20185;-65
2021/10/27 05:21:40;;;;;;;4.20;3.90;;;5.70;99.90;;;;;;5073693;28;20533;-66
2021/10/27 05:24:06;;;;;;;4.13;3.83;;;5.70;99.90;;;;;;5073654;28;20228;-64
2021/10/27 05:26:32;;;;;;;4.03;3.05;;;5.70;99.90;;;;;;5073339;28;20187;-65
2021/10/27 05:28:58;;;;;;;4.13;3.73;;;5.70;99.90;;;;;;5073580;28;20190;-64
2021/10/27 05:31:23;;;;;;;4.20;3.90;;;5.70;99.90;;;;;;5073596;28;20299;-64
2021/10/27 05:33:50;;;;;;;17.90;4.30;;;5.70;99.90;;;;;;5073669;28;20290;-65
2021/10/27 05:36:16;;;;;;;11.93;4.63;;;5.80;99.90;;;;;;5073110;28;20438;-65
2021/10/27 05:38:41;;;;;;;3.20;3.00;;;5.70;99.90;;;;;;5073254;28;20303;-65
2021/10/27 05:41:07;;;;;;;2.90;2.60;;;5.70;99.90;;;;;;5073531;28;20171;-65
2021/10/27 05:43:35;;;;;;;5.40;4.78;;;5.70;99.90;;;;;;5073432;28;20644;-64
2021/10/27 05:46:01;;;;;;;4.93;4.00;;;5.70;99.90;;;;;;5073354;28;20618;-66
2021/10/27 05:48:32;;;;;;;5.63;4.13;;;5.70;99.90;;;;;;5071688;28;20204;-64
2021/10/27 05:51:23;;;;;;;5.57;4.45;;;5.70;99.90;;;;;;5073673;28;20624;-64
2021/10/27 05:56:27;;;;;;;5.68;5.05;;;5.60;99.90;;;;;;5072952;28;20171;-64
2021/10/27 05:58:53;;;;;;;6.60;4.27;;;5.70;99.90;;;;;;5073235;28;20275;-67
2021/10/27 06:01:18;;;;;;;3.40;3.20;;;5.70;99.90;;;;;;5072060;28;20169;-65
2021/10/27 06:03:44;;;;;;;9.47;3.53;;;5.60;99.90;;;;;;5073361;28;20187;-65
2021/10/27 06:06:13;;;;;;;9.17;3.70;;;5.60;99.90;;;;;;5072982;28;20221;-65
2021/10/27 06:08:39;;;;;;;4.57;4.18;;;5.50;99.90;;;;;;5072794;28;20436;-64
2021/10/27 06:11:13;;;;;;;7.90;3.97;;;5.50;99.90;;;;;;5073108;28;20254;-65
2021/10/27 06:13:46;;;;;;;7.15;4.50;;;5.50;99.90;;;;;;5071818;28;20410;-65
2021/10/27 06:16:13;;;;;;;8.00;5.43;;;5.50;99.90;;;;;;5073161;28;20200;-66
2021/10/27 06:18:40;;;;;;;4.82;4.13;;;5.50;99.90;;;;;;5073009;28;20188;-65
2021/10/27 06:21:08;;;;;;;4.03;3.33;;;5.50;99.90;;;;;;5074005;28;20177;-64
2021/10/27 06:23:34;;;;;;;6.60;6.00;;;5.60;99.90;;;;;;5077066;28;20195;-64
2021/10/27 06:26:00;;;;;;;4.60;4.30;;;5.60;99.90;;;;;;5077286;28;20189;-64
2021/10/27 06:28:29;;;;;;;7.00;3.92;;;5.60;99.90;;;;;;5076861;28;20211;-65
2021/10/27 06:36:05;;;;;;;7.88;5.30;;;5.80;99.90;;;;;;5077156;28;20192;-65
2021/10/27 06:46:33;;;;;;;4.43;4.03;;;6.30;99.90;;;;;;5076534;28;20670;-64
2021/10/27 06:48:59;;;;;;;7.90;5.45;;;6.30;99.90;;;;;;5076591;28;20301;-64
2021/10/27 06:51:25;;;;;;;6.47;5.77;;;6.40;99.90;;;;;;5076365;28;20295;-65
2021/10/27 06:53:51;;;;;;;4.60;4.20;;;6.50;99.90;;;;;;5076682;28;20167;-65
2021/10/27 06:56:17;;;;;;;5.30;4.47;;;6.60;99.90;;;;;;5076182;28;20409;-65
2021/10/27 06:58:47;;;;;;;6.57;5.63;;;6.70;99.90;;;;;;5076457;28;20281;-65
2021/10/27 07:01:21;;;;;;;5.00;4.60;;;6.80;99.90;;;;;;5076494;28;20266;-65
2021/10/27 07:15:02;;;;;;;7.60;5.65;;;7.20;99.90;;;;;;5076417;28;20172;-65
2021/10/27 07:17:29;;;;;;;6.40;5.85;;;7.30;99.90;;;;;;5075882;28;20667;-65
2021/10/27 07:19:55;;;;;;;6.10;5.55;;;7.40;99.90;;;;;;5076225;28;20617;-65
2021/10/27 07:22:21;;;;;;;7.00;6.30;;;7.50;99.90;;;;;;5076131;28;20258;-65
2021/10/27 07:24:47;;;;;;;7.43;6.23;;;7.70;99.90;;;;;;5076072;28;20429;-65
2021/10/27 07:27:13;;;;;;;6.80;5.30;;;8.00;99.90;;;;;;5075774;28;20621;-65
2021/10/27 07:29:44;;;;;;;10.80;6.70;;;8.20;99.90;;;;;;5076033;28;20203;-64
2021/10/27 07:32:12;;;;;;;6.35;5.55;;;8.30;99.90;;;;;;5075376;28;20676;-64
2021/10/27 07:34:41;;;;;;;6.47;5.78;;;8.40;99.90;;;;;;5075998;28;20177;-65
2021/10/27 07:40:05;;;;;;;8.73;7.82;;;9.20;99.90;;;;;;5076087;28;20611;-64
2021/10/27 07:42:33;;;;;;;8.27;6.85;;;9.70;99.90;;;;;;5075866;28;20169;-65
2021/10/27 07:44:58;;;;;;;7.82;7.00;;;10.30;99.90;;;;;;5075602;28;20185;-65
2021/10/27 07:47:24;;;;;;;5.50;5.00;;;10.70;99.90;;;;;;5075208;28;20566;-65
2021/10/27 07:49:49;;;;;;;5.10;4.70;;;11.30;99.90;;;;;;5075414;28;20199;-66
2021/10/27 07:52:15;;;;;;;4.70;4.30;;;11.80;99.90;;;;;;5075583;28;20226;-65
2021/10/27 07:54:41;;;;;;;4.80;4.13;;;12.20;99.90;;;;;;5075675;28;20583;-65
2021/10/27 07:57:07;;;;;;;4.50;3.33;;;12.70;99.90;;;;;;5075062;28;20410;-66
2021/10/27 07:59:33;;;;;;;3.50;3.20;;;13.10;99.90;;;;;;5075478;28;20399;-66
2021/10/27 08:02:03;;;;;;;3.87;3.57;;;13.60;99.90;;;;;;5075510;28;20313;-66
2021/10/27 08:04:29;;;;;;;4.07;3.47;;;14.00;99.90;;;;;;5075292;28;20874;-66
2021/10/27 08:06:55;;;;;;;3.63;3.33;;;14.40;99.90;;;;;;5074969;28;20425;-66
2021/10/27 08:09:20;;;;;;;4.10;3.77;;;14.80;99.90;;;;;;5075280;28;20230;-65
2021/10/27 08:11:46;;;;;;;5.00;4.33;;;15.30;99.90;;;;;;5075313;28;20252;-67
2021/10/27 08:14:12;;;;;;;4.37;3.97;;;15.70;99.90;;;;;;5075200;28;20196;-66
2021/10/27 08:16:38;;;;;;;4.20;3.80;;;16.00;99.90;;;;;;5074603;28;20161;-66
2021/10/27 08:19:03;;;;;;;4.23;3.80;;;16.20;99.90;;;;;;5074909;28;20211;-67
2021/10/27 08:21:29;;;;;;;3.73;3.10;;;16.40;99.90;;;;;;5074983;28;20484;-67
2021/10/27 08:23:56;;;;;;;4.10;3.80;;;16.80;99.90;;;;;;5074792;28;20689;-66
2021/10/27 08:26:24;;;;;;;4.20;3.80;;;17.00;99.90;;;;;;5074605;28;20179;-66
2021/10/27 08:28:58;;;;;;;5.23;3.93;;;17.10;99.90;;;;;;5074634;28;20806;-66
2021/10/27 08:36:23;;;;;;;4.77;4.03;;;17.80;99.90;;;;;;5074292;28;20427;-66
2021/10/27 08:38:55;;;;;;;4.60;4.20;;;18.30;99.90;;;;;;5074683;28;20397;-66
2021/10/27 08:41:21;;;;;;;3.93;3.57;;;18.60;99.90;;;;;;5074729;28;20767;-66
2021/10/27 08:43:47;;;;;;;3.80;3.50;;;18.90;99.40;;;;;;5073841;28;20489;-66
2021/10/27 08:46:15;;;;;;;4.00;3.70;;;19.20;99.10;;;;;;5074642;28;20179;-67
2021/10/27 08:48:49;;;;;;;3.70;3.37;;;19.60;98.50;;;;;;5074417;28;20398;-66
2021/10/27 08:51:18;;;;;;;4.20;3.80;;;19.90;97.40;;;;;;5074339;28;20800;-66
2021/10/27 08:53:44;;;;;;;6.23;3.87;;;20.20;96.80;;;;;;5074405;28;20516;-66
2021/10/27 08:56:10;;;;;;;3.80;3.50;;;20.60;97.60;;;;;;5074224;28;20829;-66
2021/10/27 08:58:53;;;;;;;4.50;4.20;;;20.90;94.70;;;;;;5074070;28;20411;-65
2021/10/27 09:01:39;;;;;;;4.67;4.27;;;21.20;97.60;;;;;;5074383;28;20499;-66
2021/10/27 09:17:15;;;;;;;5.17;3.50;;;21.90;93.50;;;;;;5073679;28;20464;-66
2021/10/27 09:42:29;;;;;;;8.97;5.00;;;23.10;93.50;;;;;;5073916;28;20390;-66
2021/10/27 10:05:17;;;;;;;3.83;3.50;;;22.80;91.10;;;;;;5073448;28;20377;-65
2021/10/27 10:07:44;;;;;;;3.90;3.60;;;22.90;91.60;;;;;;5072438;28;20826;-65
2021/10/27 10:10:11;;;;;;;4.83;4.43;;;23.00;91.70;;;;;;5072948;28;20981;-65
2021/10/27 10:12:45;;;;;;;4.00;3.70;;;23.00;89.30;;;;;;5073039;28;20464;-66
2021/10/27 10:15:12;;;;;;;3.73;3.43;;;23.00;89.30;;;;;;5073302;28;20419;-65
2021/10/27 10:17:39;;;;;;;4.03;3.70;;;23.00;88.50;;;;;;5072854;28;20825;-65
2021/10/27 10:20:07;;;;;;;4.57;4.10;;;22.90;90.90;;;;;;5073114;28;20741;-65
2021/10/27 10:22:37;;;;;;;5.43;3.33;;;22.90;90.30;;;;;;5073134;28;20434;-68
2021/10/27 10:25:28;;;;;;;4.13;3.70;;;23.00;93.00;;;;;;5072009;28;20738;-68
2021/10/27 10:27:55;;;;;;;4.30;3.80;;;23.00;91.90;;;;;;5071967;28;20831;-68
2021/10/27 10:30:39;;;;;;;5.00;3.80;;;22.80;91.20;;;;;;5072968;28;20854;-68
2021/10/27 10:33:09;;;;;;;3.83;3.33;;;22.30;91.40;;;;;;5073152;28;20391;-69
2021/10/27 10:35:48;;;;;;;4.40;3.97;;;21.70;90.60;;;;;;5072860;28;20397;-67
2021/10/27 10:38:24;;;;;;;3.67;3.00;;;21.40;92.00;;;;;;5072472;28;20426;-67
2021/10/27 10:40:59;;;;;;;3.57;3.27;;;21.30;92.40;;;;;;5073006;28;20411;-67
2021/10/27 10:57:52;;;;;;;2.90;2.67;;;20.80;93.50;;;;;;5072771;28;20772;-67
2021/10/27 11:42:02;;;;;;;1.93;1.73;;;16.60;99.90;;;;;;5075834;28;20418;-61
2021/10/27 11:44:46;;;;;;;1.60;1.50;;;16.50;99.80;;;;;;5075994;28;20446;-63
2021/10/27 11:47:35;;;;;;;2.40;2.20;;;16.40;99.90;;;;;;5075638;28;20421;-63
2021/10/27 11:50:02;;;;;;;1.97;1.37;;;16.30;99.90;;;;;;5075649;28;20465;-64
2021/10/27 11:52:39;;;;;;;3.53;2.33;;;16.20;99.90;;;;;;5075581;28;20370;-63
2021/10/27 11:55:10;;;;;;;1.87;1.63;;;16.30;99.90;;;;;;5075671;28;20407;-64
2021/10/27 11:57:37;;;;;;;1.70;1.60;;;16.30;99.90;;;;;;5075167;28;20450;-62
2021/10/27 12:00:09;;;;;;;2.07;1.20;;;16.30;99.90;;;;;;5075392;28;20438;-62
2021/10/27 12:02:48;;;;;;;1.10;1.00;;;16.30;99.90;;;;;;5075550;28;20903;-61
2021/10/27 12:05:25;;;;;;;1.43;1.33;;;16.30;99.30;;;;;;5075340;28;20450;-63
2021/10/27 12:08:50;;;;;;;1.57;1.47;;;16.30;98.10;;;;;;5074931;28;20532;-60
2021/10/27 12:11:51;;;;;;;1.73;1.20;;;16.30;99.60;;;;;;5073899;28;20456;-60
2021/10/27 12:16:47;;;;;;;1.40;1.30;;;16.20;99.40;;;;;;5075108;28;20478;-62
2021/10/27 12:19:24;;;;;;;1.37;1.10;;;16.20;99.20;;;;;;5073802;28;20452;-61
2021/10/27 12:22:03;;;;;;;1.30;1.23;;;16.30;99.20;;;;;;5074984;28;20439;-61
2021/10/27 12:24:32;;;;;;;0.90;0.90;;;16.40;98.20;;;;;;5055085;28;20415;-61
2021/10/27 12:29:36;;;;;;;1.13;1.07;;;16.40;97.50;;;;;;5075066;28;20444;-61
2021/10/27 12:32:09;;;;;;;1.70;1.60;;;16.40;98.10;;;;;;5074658;28;20386;-63
2021/10/27 12:34:48;;;;;;;1.50;1.40;;;16.40;98.70;;;;;;5074830;28;20404;-62
2021/10/27 12:37:32;;;;;;;2.03;1.93;;;16.40;98.10;;;;;;5074579;28;20435;-62
2021/10/27 12:40:24;;;;;;;1.47;1.37;;;16.40;98.20;;;;;;5074350;28;20949;-62
2021/10/27 12:43:07;;;;;;;0.90;0.90;;;16.30;98.10;;;;;;5071147;28;20476;-62
2021/10/27 12:45:32;;;;;;;1.60;0.93;;;16.30;98.70;;;;;;5074558;28;20802;-62
2021/10/27 12:48:06;;;;;;;2.07;1.57;;;16.30;98.00;;;;;;5073689;28;20485;-63
2021/10/27 12:50:33;;;;;;;1.20;1.10;;;16.30;97.50;;;;;;5074227;28;20192;-63
2021/10/27 12:53:01;;;;;;;0.97;0.97;;;16.40;97.40;;;;;;5074606;28;20891;-62
2021/10/27 12:55:30;;;;;;;1.17;1.13;;;16.40;97.50;;;;;;5074379;28;20378;-62
2021/10/27 12:58:06;;;;;;;1.83;1.20;;;16.40;98.20;;;;;;5073699;28;20410;-62
2021/10/27 13:01:14;;;;;;;2.00;1.27;;;16.50;97.30;;;;;;5074475;28;20883;-62
2021/10/27 13:04:12;;;;;;;1.10;1.10;;;16.50;95.30;;;;;;5074474;28;20464;-62
2021/10/27 13:21:41;;;;;;;0.70;0.70;;;16.50;96.90;;;;;;5073849;28;20426;-62
2021/10/27 13:29:54;;;;;;;1.13;1.13;;;16.60;95.90;;;;;;5073445;28;20996;-63
2021/10/27 13:32:22;;;;;;;1.23;1.20;;;16.50;96.10;;;;;;5073822;28;20374;-62
2021/10/27 13:34:48;;;;;;;0.80;0.80;;;16.50;96.00;;;;;;5073617;28;20412;-62
2021/10/27 13:37:18;;;;;;;0.90;0.90;;;16.50;96.10;;;;;;5072895;28;20419;-62
2021/10/27 13:39:44;;;;;;;1.53;1.07;;;16.50;95.30;;;;;;5073610;28;20453;-63
2021/10/27 13:42:37;;;;;;;2.63;1.17;;;16.50;96.10;;;;;;5073662;28;20411;-62
2021/10/27 13:58:29;;;;;;;1.37;1.07;;;16.50;96.80;;;;;;5072780;28;20418;-62
2021/10/27 14:06:39;;;;;;;1.90;1.70;;;16.60;95.70;;;;;;5072973;28;20739;-63
2021/10/27 14:09:15;;;;;;;1.43;1.23;;;16.50;96.60;;;;;;5072502;28;20796;-62
2021/10/27 14:12:09;;;;;;;1.10;1.00;;;16.50;97.40;;;;;;5072775;28;20421;-62
2021/10/27 14:17:48;;;;;;;6.50;1.20;;;16.50;96.50;;;;;;5052650;28;20946;-63
2021/10/27 14:48:08;;;;;;;0.90;0.90;;;16.40;96.80;;;;;;5076504;28;20780;-63
2021/10/27 15:20:34;;;;;;;5.07;1.93;;;16.10;97.90;;;;;;5075481;28;20392;-63
2021/10/27 15:23:16;;;;;;;1.80;1.70;;;16.00;99.30;;;;;;5068410;28;20906;-62
2021/10/27 15:36:49;;;;;;;1.53;1.43;;;15.80;99.50;;;;;;5070394;28;20438;-63
2021/10/27 15:44:38;;;;;;;1.87;1.67;;;15.50;99.90;;;;;;5075477;28;20912;-63
2021/10/27 15:52:33;;;;;;;1.37;1.27;;;15.20;99.90;;;;;;5074886;28;20401;-62
2021/10/27 15:54:59;;;;;;;1.87;1.77;;;15.10;99.90;;;;;;5075361;28;20418;-64
2021/10/27 15:57:24;;;;;;;3.77;1.90;;;15.10;99.90;;;;;;5075040;28;20487;-62
2021/10/27 15:59:54;;;;;;;2.33;2.13;;;15.00;99.90;;;;;;5075363;28;20570;-62
2021/10/27 16:02:20;;;;;;;2.30;2.20;;;14.90;99.90;;;;;;5074681;28;20256;-63
2021/10/27 16:04:46;;;;;;;1.30;1.20;;;14.80;99.90;;;;;;5075000;28;20931;-62
2021/10/27 16:07:15;;;;;;;1.50;1.43;;;14.80;99.90;;;;;;5074623;28;20487;-63
2021/10/27 16:09:43;;;;;;;2.40;2.03;;;14.60;99.90;;;;;;5073511;28;20414;-61
2021/10/27 16:12:09;;;;;;;2.60;1.47;;;14.50;99.90;;;;;;5075013;28;20808;-64
2021/10/27 16:14:36;;;;;;;2.07;1.97;;;14.50;99.90;;;;;;5075030;28;20414;-64
2021/10/27 16:17:03;;;;;;;2.17;1.67;;;14.50;99.90;;;;;;5074282;28;20454;-67
2021/10/27 16:19:29;;;;;;;2.70;2.10;;;14.40;99.90;;;;;;5074748;28;20442;-62
2021/10/27 16:21:56;;;;;;;3.90;2.47;;;14.30;99.90;;;;;;5074879;28;20413;-64
2021/10/27 16:24:24;;;;;;;5.23;3.23;;;14.20;99.90;;;;;;5074743;28;20738;-64
2021/10/27 16:26:51;;;;;;;2.90;2.70;;;14.20;99.90;;;;;;5074456;28;20470;-64
2021/10/27 16:29:17;;;;;;;3.57;2.77;;;14.10;99.90;;;;;;5074766;28;20433;-63
2021/10/27 16:31:42;;;;;;;5.70;5.17;;;14.10;99.90;;;;;;5074624;28;20435;-64
2021/10/27 16:34:09;;;;;;;2.63;2.40;;;14.00;99.90;;;;;;5074912;28;20532;-62
2021/10/27 16:36:35;;;;;;;3.97;2.67;;;13.90;99.90;;;;;;5074031;28;20195;-63
2021/10/27 16:39:03;;;;;;;2.50;2.40;;;13.90;99.90;;;;;;5074266;28;20442;-62
2021/10/27 16:41:30;;;;;;;2.67;2.47;;;13.70;99.90;;;;;;5053266;28;20230;-62
2021/10/27 16:43:56;;;;;;;6.60;4.17;;;13.60;99.90;;;;;;5054243;28;20421;-62
2021/10/27 16:46:21;;;;;;;5.87;4.73;;;13.50;99.90;;;;;;5054062;28;20414;-63
2021/10/27 16:48:49;;;;;;;3.90;3.60;;;13.30;99.90;;;;;;5067472;28;20444;-65
2021/10/27 16:51:16;;;;;;;3.72;3.13;;;13.20;99.90;;;;;;5073919;28;20205;-62
2021/10/27 16:53:41;;;;;;;4.55;4.15;;;13.00;99.90;;;;;;5074367;28;20175;-62
2021/10/27 16:56:07;;;;;;;9.83;6.23;;;12.90;99.90;;;;;;5074158;28;20169;-66
2021/10/27 16:58:33;;;;;;;6.60;6.00;;;12.80;99.90;;;;;;5073006;28;20255;-66
2021/10/27 17:00:59;;;;;;;9.17;6.43;;;12.70;99.90;;;;;;5073789;28;20177;-67
2021/10/27 17:03:25;;;;;;;5.77;4.70;;;12.60;99.90;;;;;;5073853;28;20405;-67
2021/10/27 17:05:51;;;;;;;4.23;3.60;;;12.50;99.90;;;;;;5073014;28;20789;-66
2021/10/27 17:08:17;;;;;;;6.28;3.83;;;12.40;99.90;;;;;;5072425;28;20209;-65
2021/10/27 17:10:49;;;;;;;4.97;4.00;;;12.30;99.90;;;;;;5073159;28;20197;-62
2021/10/27 17:13:15;;;;;;;3.45;3.00;;;12.20;99.90;;;;;;5073927;28;20211;-68
2021/10/27 17:15:41;;;;;;;3.35;3.05;;;12.10;99.90;;;;;;5073973;28;20533;-67
2021/10/27 17:18:07;;;;;;;2.73;2.50;;;12.10;99.90;;;;;;5073145;28;20181;-66
2021/10/27 17:20:33;;;;;;;3.67;2.55;;;12.00;99.90;;;;;;5073611;28;20408;-65
2021/10/27 17:23:00;;;;;;;4.80;4.40;;;11.90;99.90;;;;;;5073692;28;20545;-65
2021/10/27 17:25:27;;;;;;;4.68;4.32;;;11.80;99.90;;;;;;5073484;28;20548;-64
2021/10/27 17:27:53;;;;;;;4.32;3.90;;;11.80;99.90;;;;;;5056102;28;20569;-65
2021/10/27 17:30:20;;;;;;;3.13;2.92;;;11.70;99.90;;;;;;5053328;28;20527;-66
2021/10/27 17:32:46;;;;;;;2.78;2.58;;;11.70;99.90;;;;;;5056864;28;20235;-63
2021/10/27 17:35:14;;;;;;;4.15;3.20;;;11.60;99.90;;;;;;5071220;28;20612;-63